createdAt,value
2019-04-26T00:01:18.309Z,2.42
2019-04-26T00:06:23.054Z,0.98
2019-04-26T00:17:05.916Z,3.05
2019-04-26T00:22:10.699Z,2.02
2019-04-26T00:27:16.751Z,1.12
2019-04-26T00:32:21.527Z,1.87
2019-04-26T00:37:25.829Z,2.45
2019-04-26T00:42:31.818Z,1.92
2019-04-26T00:47:36.790Z,1.72
2019-04-26T00:52:42.471Z,2.22
2019-04-26T00:57:46.956Z,7.55
2019-04-26T01:02:54.200Z,3.33
2019-04-26T01:07:58.419Z,2.42
2019-04-26T01:13:02.805Z,1.82
2019-04-26T01:18:07.145Z,1.77
2019-04-26T01:23:13.037Z,3.95
2019-04-26T01:28:25.669Z,1.47
2019-04-26T01:33:31.981Z,3.05
2019-04-26T01:38:36.038Z,1.90
2019-04-26T01:43:49.075Z,1.65
2019-04-26T01:49:03.914Z,1.85
2019-04-26T01:54:10.900Z,1.22
2019-04-26T01:59:17.195Z,1.05
2019-04-26T02:04:23.924Z,2.10
2019-04-26T02:09:28.437Z,2.00
2019-04-26T02:14:33.331Z,1.95
2019-04-26T02:19:37.960Z,2.55
2019-04-26T02:24:45.127Z,3.52
2019-04-26T02:29:49.049Z,1.82
2019-04-26T02:34:53.550Z,2.63
2019-04-26T02:39:58.390Z,2.12
2019-04-26T02:45:29.999Z,3.10
2019-04-26T02:50:44.995Z,3.98
2019-04-26T02:56:31.631Z,3.27
2019-04-26T03:01:37.835Z,2.50
2019-04-26T03:07:01.825Z,3.05
2019-04-26T03:11:54.487Z,3.08
2019-04-26T03:17:24.002Z,3.22
2019-04-26T03:23:01.320Z,3.08
2019-04-26T03:28:36.758Z,4.05
2019-04-26T03:33:54.240Z,4.78
2019-04-26T03:39:15.908Z,4.12
2019-04-26T03:44:30.068Z,3.33
2019-04-26T03:50:07.982Z,3.62
2019-04-26T03:55:50.167Z,3.67
2019-04-26T04:01:00.000Z,3.08
2019-04-26T04:06:07.062Z,4.58
2019-04-26T04:11:14.531Z,3.00
2019-04-26T04:16:42.473Z,2.85
2019-04-26T04:21:56.539Z,2.95
2019-04-26T04:27:23.663Z,3.87
2019-04-26T04:32:47.567Z,6.30
2019-04-26T04:38:08.361Z,10.05
2019-04-26T04:43:33.436Z,7.22
2019-04-26T04:49:21.213Z,5.03
2019-04-26T04:54:37.604Z,4.22
2019-04-26T05:00:01.057Z,7.03
2019-04-26T05:05:34.356Z,7.70
2019-04-26T05:10:51.993Z,6.10
2019-04-26T05:16:25.952Z,7.97
2019-04-26T05:21:55.093Z,4.62
2019-04-26T05:27:44.193Z,6.45
2019-04-26T05:33:00.232Z,6.45
2019-04-26T05:38:18.581Z,5.72
2019-04-26T05:43:49.179Z,7.67
2019-04-26T05:49:35.956Z,6.03
2019-04-26T05:55:07.669Z,9.03
2019-04-26T06:00:36.926Z,5.58
2019-04-26T06:06:23.052Z,6.42
2019-04-26T06:11:36.281Z,8.45
2019-04-26T06:17:21.677Z,8.30
2019-04-26T06:22:57.456Z,6.25
2019-04-26T06:28:24.245Z,6.58
2019-04-26T06:33:35.765Z,6.80
2019-04-26T06:39:05.572Z,7.28
2019-04-26T06:44:14.974Z,3.77
2019-04-26T06:50:15.051Z,6.30
2019-04-26T06:55:39.920Z,5.95
2019-04-26T07:01:08.265Z,7.40
2019-04-26T07:06:15.248Z,6.50
2019-04-26T07:12:21.803Z,7.83
2019-04-26T07:18:05.048Z,10.82
2019-04-26T07:24:16.529Z,12.73
2019-04-26T07:29:57.161Z,12.73
2019-04-26T07:35:16.539Z,12.43
2019-04-26T07:41:07.978Z,12.55
2019-04-26T07:46:52.363Z,14.20
2019-04-26T07:52:48.392Z,15.72
2019-04-26T07:58:45.066Z,17.02
2019-04-26T08:03:59.533Z,18.00
2019-04-26T08:14:23.403Z,14.18
2019-04-26T08:19:30.551Z,16.02
2019-04-26T08:24:37.574Z,14.87
2019-04-26T08:29:45.086Z,15.60
2019-04-26T08:34:57.939Z,15.58
2019-04-26T08:40:07.765Z,13.48
2019-04-26T08:45:28.708Z,11.53
2019-04-26T08:50:53.072Z,11.65
2019-04-26T09:01:22.887Z,12.30
2019-04-26T09:06:36.038Z,10.60
2019-04-26T09:11:41.332Z,16.17
2019-04-26T09:16:50.367Z,16.02
2019-04-26T09:22:13.868Z,13.58
2019-04-26T09:27:36.455Z,13.72
2019-04-26T09:32:54.012Z,15.43
2019-04-26T09:37:58.449Z,12.28
2019-04-26T09:43:15.240Z,13.55
2019-04-26T09:48:26.600Z,13.30
2019-04-26T09:53:31.626Z,14.58
2019-04-26T09:58:37.210Z,15.28
2019-04-26T10:03:42.146Z,16.93
2019-04-26T10:08:47.090Z,19.87
2019-04-26T10:14:01.615Z,18.12
2019-04-26T10:19:10.508Z,19.15
2019-04-26T10:24:14.904Z,16.65
2019-04-26T10:29:21.651Z,20.40
2019-04-26T10:34:25.174Z,16.55
2019-04-26T10:39:32.505Z,18.10
2019-04-26T10:44:39.886Z,17.73
2019-04-26T10:49:44.313Z,17.90
2019-04-26T10:54:52.871Z,19.95
2019-04-26T10:59:58.871Z,22.42
2019-04-26T11:05:03.337Z,16.17
2019-04-26T11:10:07.977Z,15.65
2019-04-26T11:20:16.387Z,14.07
2019-04-26T11:25:24.725Z,15.85
2019-04-26T11:30:27.395Z,14.30
2019-04-26T11:35:33.267Z,14.75
2019-04-26T11:40:44.474Z,12.47
2019-04-26T11:46:03.792Z,15.48
2019-04-26T11:51:00.297Z,13.23
2019-04-26T11:56:07.465Z,17.27
2019-04-26T12:01:13.159Z,11.73
2019-04-26T12:06:44.822Z,13.55
2019-04-26T12:12:03.697Z,12.88
2019-04-26T12:16:59.739Z,14.83
2019-04-26T12:22:04.313Z,12.03
2019-04-26T12:27:11.097Z,14.43
2019-04-26T12:32:17.224Z,12.35
2019-04-26T12:37:21.249Z,14.40
2019-04-26T12:42:26.474Z,10.95
2019-04-26T12:48:03.994Z,9.68
2019-04-26T12:53:08.040Z,11.97
2019-04-26T12:58:15.199Z,14.58
2019-04-26T13:03:37.378Z,11.70
2019-04-26T13:08:47.227Z,12.60
2019-04-26T13:14:01.352Z,10.05
2019-04-26T13:19:09.065Z,10.53
2019-04-26T13:24:15.361Z,9.58
2019-04-26T13:29:22.983Z,10.60
2019-04-26T13:34:27.091Z,11.30
2019-04-26T13:39:31.147Z,9.53
2019-04-26T13:44:55.447Z,7.67
2019-04-26T13:55:15.563Z,9.38
2019-04-26T14:00:26.097Z,11.75
2019-04-26T14:05:30.527Z,9.38
2019-04-26T14:10:34.596Z,12.90
2019-04-26T14:15:39.460Z,10.23
2019-04-26T14:20:44.753Z,12.00
2019-04-26T14:26:10.102Z,10.10
2019-04-26T14:31:16.456Z,11.53
2019-04-26T14:36:22.718Z,7.47
2019-04-26T14:41:26.074Z,16.30
2019-04-26T14:46:30.438Z,13.43
2019-04-26T14:51:34.481Z,10.35
2019-04-26T14:56:51.528Z,9.15
2019-04-26T15:02:15.655Z,9.35
2019-04-26T15:07:19.915Z,10.00
2019-04-26T15:12:24.568Z,13.00
2019-04-26T15:22:32.985Z,13.53
2019-04-26T15:27:37.381Z,12.58
2019-04-26T15:32:42.647Z,13.72
2019-04-26T15:37:46.873Z,11.18
2019-04-26T15:43:02.976Z,14.43
2019-04-26T15:48:16.115Z,12.70
2019-04-26T15:53:22.107Z,13.98
2019-04-26T15:58:26.997Z,13.45
2019-04-26T16:03:32.598Z,12.70
2019-04-26T16:08:42.585Z,17.95
2019-04-26T16:13:45.125Z,14.28
2019-04-26T16:18:53.380Z,14.53
2019-04-26T16:23:55.287Z,12.43
2019-04-26T16:29:19.751Z,14.98
2019-04-26T16:39:32.353Z,15.27
2019-04-26T16:44:33.660Z,12.35
2019-04-26T16:49:41.946Z,12.63
2019-04-26T16:54:45.862Z,13.90
2019-04-26T17:00:35.776Z,12.65
2019-04-26T17:04:55.614Z,16.90
2019-04-26T17:10:00.009Z,14.77
2019-04-26T17:20:10.922Z,15.50
2019-04-26T17:25:37.293Z,15.03
2019-04-26T17:30:44.442Z,14.45
2019-04-26T17:35:47.271Z,12.07
2019-04-26T17:40:51.466Z,13.70
2019-04-26T17:45:55.584Z,14.38
2019-04-26T17:50:59.588Z,13.13
2019-04-26T17:56:06.353Z,35.80
2019-04-26T18:01:10.134Z,35.38
2019-04-26T18:06:15.513Z,17.05
2019-04-26T18:11:24.757Z,16.62
2019-04-26T18:16:29.420Z,16.07
2019-04-26T18:22:03.876Z,24.82
2019-04-26T18:27:09.814Z,32.03
2019-04-26T18:32:14.254Z,53.05
2019-04-26T18:37:18.817Z,50.55
2019-04-26T18:42:22.815Z,27.13
2019-04-26T18:47:32.228Z,21.20
2019-04-26T18:52:38.457Z,15.48
2019-04-26T18:57:43.036Z,23.12
2019-04-26T19:02:48.403Z,22.85
2019-04-26T19:07:53.121Z,32.40
2019-04-26T19:13:00.158Z,40.58
2019-04-26T19:18:33.982Z,39.13
2019-04-26T19:28:44.391Z,17.52
2019-04-26T19:33:51.518Z,20.52
2019-04-26T19:38:53.569Z,18.77
2019-04-26T19:43:59.115Z,20.57
2019-04-26T19:49:25.863Z,17.62
2019-04-26T19:54:38.294Z,18.27
2019-04-26T19:59:39.935Z,19.67
2019-04-26T20:04:44.035Z,19.82
2019-04-26T20:09:48.142Z,21.95
2019-04-26T20:14:56.775Z,19.95
2019-04-26T20:19:59.440Z,25.40
2019-04-26T20:25:03.494Z,19.10
2019-04-26T20:30:12.598Z,24.18
2019-04-26T20:35:26.524Z,25.60
2019-04-26T20:40:27.631Z,21.70
2019-04-26T20:45:41.125Z,17.52
2019-04-26T20:50:37.834Z,20.35
2019-04-26T20:55:42.748Z,24.00
2019-04-26T21:00:54.224Z,20.27
2019-04-26T21:05:58.788Z,19.67
2019-04-26T21:11:00.190Z,22.00
2019-04-26T21:16:10.627Z,21.12
2019-04-26T21:21:11.868Z,22.13
2019-04-26T21:26:35.590Z,18.25
2019-04-26T21:31:59.384Z,18.70
2019-04-26T21:37:22.141Z,20.12
2019-04-26T21:42:27.323Z,18.83
2019-04-26T21:47:32.931Z,19.95
2019-04-26T21:52:38.255Z,23.95
2019-04-26T21:57:43.902Z,19.67
2019-04-26T22:02:48.213Z,16.57
2019-04-26T22:07:53.487Z,17.65
2019-04-26T22:13:01.474Z,14.85
2019-04-26T22:18:10.309Z,15.43
2019-04-26T22:23:33.798Z,19.75
2019-04-26T22:28:37.840Z,17.45
2019-04-26T22:33:42.874Z,15.55
2019-04-26T22:38:47.797Z,13.32
2019-04-26T22:44:00.120Z,14.00
2019-04-26T22:49:05.720Z,15.20
2019-04-26T22:54:10.097Z,15.58
2019-04-26T22:59:14.049Z,13.93
2019-04-26T23:04:24.982Z,14.13
2019-04-26T23:09:24.439Z,15.98
2019-04-26T23:14:57.668Z,13.85
2019-04-26T23:20:19.369Z,14.03
2019-04-26T23:25:23.879Z,14.87
